Главная страница
METAR-TAF:

METAR-TAF

Аэропорты :

Хёугесунн, Норвегия

широта: 59-21N, долгота: 005-13E, высота над уровнем моря: 2 м

Текущие метеонаблюдения

Эта сводка был подготовлена 28 минут назад, в 20:20 UTC
Ветер 3 Узел переменных направлений
Температура 10°C
Влажность 66%
Давление 1010 hPa
Видимость 10 км и более

METAR: ENHD 132020Z AUTO VRB03KT 9999 OVC140/// 10/04 Q1010

Время: 22:48 (20:48 UTC)

Прогноз

Эта сводка был подготовлена 9 часа и 48 минут назад, в 11:00 UTC
Прогноз действительный с 13-го 12 UTC до 13-го 20 UTC
Ветер 7 Узел от западный
Видимость 10 км и более
небольшая облачность на высоте 2500 фута
Вероятность 30% :
временами
С 13-го 12 UTC до 13-го 15 UTC
Рассеянная облачность на высоте 2000 фута, мощно-кучевые.
ливневые дожди,

TAF: ENHD 131100Z 1312/1320 28007KT 9999 FEW025 PROB30 TEMPO 1312/1315 SHRA BKN020TCU

Метеонаблюдения и прогнозы для более 4000 аэропортов (сводки METAR и TAF).

Имеющиеся станции представлены на карте желтыми и красными точками.

Чтобы увидеть название станции, наведите на нее мышь.

Затем щелкните, чтобы увидеть метеонаблюдения и метеопрогнозы.

Управление картой: чтобы увеличить масштаб, щелкните зеленые кнопки с черным крестиком; чтобы уменьшить масштаб, щелкните зеленую кнопку с тире; для просмотра соседних карт щелкайте зеленые стрелки.


METAR-TAF: